Terminal Aerodrome Forecast
Issued by NWS

Home | Current Version | Previous Version | Text Only | Print | Product List | Glossary On
Versions: 1 2 3 4 5 6 7 8 9 10 11 12 13 14 15 16
000
FTUS42 KGSP 222300
TAFAND
TAF
KAND 222333Z 2300/2324 09003KT P6SM SCT200 SCT250
     FM230700 03007KT P6SM FEW040
     FM231400 05011KT P6SM FEW040=

USA.gov is the U.S. government's official web portal to all federal, state and local government web resources and services.